sensor_id;sensor_type;location;lat;lon;timestamp;P1;durP1;ratioP1;P2;durP2;ratioP2
11854;SDS011;5987;53.140;8.904;2023-03-01T00:00:27;18.97;;;13.00;;
11854;SDS011;5987;53.140;8.904;2023-03-01T00:03:31;17.03;;;12.40;;
11854;SDS011;5987;53.140;8.904;2023-03-01T00:06:36;18.53;;;12.60;;
11854;SDS011;5987;53.140;8.904;2023-03-01T00:09:40;15.43;;;11.53;;
11854;SDS011;5987;53.140;8.904;2023-03-01T00:12:48;19.37;;;12.43;;
11854;SDS011;5987;53.140;8.904;2023-03-01T00:15:52;17.53;;;12.43;;
11854;SDS011;5987;53.140;8.904;2023-03-01T00:18:56;18.43;;;12.37;;
11854;SDS011;5987;53.140;8.904;2023-03-01T00:22:01;16.77;;;11.93;;
11854;SDS011;5987;53.140;8.904;2023-03-01T00:25:05;16.57;;;11.73;;
11854;SDS011;5987;53.140;8.904;2023-03-01T00:28:11;17.17;;;11.13;;
11854;SDS011;5987;53.140;8.904;2023-03-01T00:31:16;16.30;;;11.87;;
11854;SDS011;5987;53.140;8.904;2023-03-01T00:34:23;16.70;;;10.57;;
11854;SDS011;5987;53.140;8.904;2023-03-01T00:37:27;14.83;;;11.57;;
11854;SDS011;5987;53.140;8.904;2023-03-01T00:40:32;16.90;;;11.57;;
11854;SDS011;5987;53.140;8.904;2023-03-01T00:43:39;15.63;;;11.03;;
11854;SDS011;5987;53.140;8.904;2023-03-01T00:46:43;16.97;;;11.23;;
11854;SDS011;5987;53.140;8.904;2023-03-01T00:49:47;13.57;;;10.00;;
11854;SDS011;5987;53.140;8.904;2023-03-01T00:52:52;16.80;;;11.00;;
11854;SDS011;5987;53.140;8.904;2023-03-01T00:55:56;16.27;;;11.43;;
11854;SDS011;5987;53.140;8.904;2023-03-01T00:59:02;15.30;;;10.33;;
11854;SDS011;5987;53.140;8.904;2023-03-01T01:02:06;16.10;;;11.33;;
11854;SDS011;5987;53.140;8.904;2023-03-01T01:05:10;13.60;;;10.67;;
11854;SDS011;5987;53.140;8.904;2023-03-01T01:08:14;15.93;;;11.07;;
11854;SDS011;5987;53.140;8.904;2023-03-01T01:11:18;14.97;;;11.07;;
11854;SDS011;5987;53.140;8.904;2023-03-01T01:14:25;18.80;;;11.90;;
11854;SDS011;5987;53.140;8.904;2023-03-01T01:17:29;15.23;;;10.43;;
11854;SDS011;5987;53.140;8.904;2023-03-01T01:20:34;14.77;;;11.50;;
11854;SDS011;5987;53.140;8.904;2023-03-01T01:23:39;14.87;;;10.27;;
11854;SDS011;5987;53.140;8.904;2023-03-01T01:26:44;18.90;;;11.43;;
11854;SDS011;5987;53.140;8.904;2023-03-01T01:29:50;17.10;;;11.87;;
11854;SDS011;5987;53.140;8.904;2023-03-01T01:32:56;18.13;;;12.47;;
11854;SDS011;5987;53.140;8.904;2023-03-01T01:35:59;20.57;;;11.93;;
11854;SDS011;5987;53.140;8.904;2023-03-01T01:39:04;18.70;;;11.90;;
11854;SDS011;5987;53.140;8.904;2023-03-01T01:42:10;19.73;;;12.83;;
11854;SDS011;5987;53.140;8.904;2023-03-01T01:45:27;19.37;;;12.27;;
11854;SDS011;5987;53.140;8.904;2023-03-01T01:48:37;20.20;;;12.73;;
11854;SDS011;5987;53.140;8.904;2023-03-01T01:51:48;18.07;;;12.27;;
11854;SDS011;5987;53.140;8.904;2023-03-01T01:55:02;18.23;;;12.67;;
11854;SDS011;5987;53.140;8.904;2023-03-01T01:58:12;19.53;;;12.20;;
11854;SDS011;5987;53.140;8.904;2023-03-01T02:01:23;19.33;;;12.37;;
11854;SDS011;5987;53.140;8.904;2023-03-01T02:04:28;15.83;;;11.47;;
11854;SDS011;5987;53.140;8.904;2023-03-01T02:07:33;17.83;;;10.80;;
11854;SDS011;5987;53.140;8.904;2023-03-01T02:10:37;15.00;;;11.77;;
11854;SDS011;5987;53.140;8.904;2023-03-01T02:13:41;18.67;;;11.47;;
11854;SDS011;5987;53.140;8.904;2023-03-01T02:16:49;16.83;;;11.43;;
11854;SDS011;5987;53.140;8.904;2023-03-01T02:19:59;16.43;;;10.70;;
11854;SDS011;5987;53.140;8.904;2023-03-01T02:23:14;18.37;;;11.13;;
11854;SDS011;5987;53.140;8.904;2023-03-01T02:26:20;17.50;;;11.17;;
11854;SDS011;5987;53.140;8.904;2023-03-01T02:29:38;14.57;;;10.23;;
11854;SDS011;5987;53.140;8.904;2023-03-01T02:32:45;15.93;;;10.20;;
11854;SDS011;5987;53.140;8.904;2023-03-01T02:35:51;13.87;;;9.93;;
11854;SDS011;5987;53.140;8.904;2023-03-01T02:38:58;14.70;;;9.33;;
11854;SDS011;5987;53.140;8.904;2023-03-01T02:42:07;16.13;;;10.13;;
11854;SDS011;5987;53.140;8.904;2023-03-01T02:45:19;14.43;;;9.97;;
11854;SDS011;5987;53.140;8.904;2023-03-01T02:48:23;13.97;;;9.67;;
11854;SDS011;5987;53.140;8.904;2023-03-01T02:51:33;15.13;;;10.30;;
11854;SDS011;5987;53.140;8.904;2023-03-01T02:54:51;12.57;;;10.37;;
11854;SDS011;5987;53.140;8.904;2023-03-01T02:58:01;13.63;;;10.20;;
11854;SDS011;5987;53.140;8.904;2023-03-01T03:01:07;12.17;;;9.90;;
11854;SDS011;5987;53.140;8.904;2023-03-01T03:04:12;17.53;;;10.03;;
11854;SDS011;5987;53.140;8.904;2023-03-01T03:07:19;14.90;;;10.50;;
11854;SDS011;5987;53.140;8.904;2023-03-01T03:10:23;16.33;;;10.20;;
11854;SDS011;5987;53.140;8.904;2023-03-01T03:13:30;16.30;;;10.03;;
11854;SDS011;5987;53.140;8.904;2023-03-01T03:16:35;16.23;;;10.67;;
11854;SDS011;5987;53.140;8.904;2023-03-01T03:19:39;12.67;;;9.60;;
11854;SDS011;5987;53.140;8.904;2023-03-01T03:22:43;11.80;;;9.43;;
11854;SDS011;5987;53.140;8.904;2023-03-01T03:25:47;13.43;;;9.97;;
11854;SDS011;5987;53.140;8.904;2023-03-01T03:28:52;14.93;;;10.70;;
11854;SDS011;5987;53.140;8.904;2023-03-01T03:31:57;12.93;;;9.23;;
11854;SDS011;5987;53.140;8.904;2023-03-01T03:35:01;13.20;;;9.63;;
11854;SDS011;5987;53.140;8.904;2023-03-01T03:38:11;16.13;;;9.83;;
11854;SDS011;5987;53.140;8.904;2023-03-01T03:41:20;15.90;;;9.67;;
11854;SDS011;5987;53.140;8.904;2023-03-01T03:44:24;14.97;;;8.97;;
11854;SDS011;5987;53.140;8.904;2023-03-01T03:47:29;13.73;;;9.57;;
11854;SDS011;5987;53.140;8.904;2023-03-01T03:50:32;13.27;;;9.87;;
11854;SDS011;5987;53.140;8.904;2023-03-01T03:53:36;16.53;;;9.97;;
11854;SDS011;5987;53.140;8.904;2023-03-01T03:56:40;15.30;;;9.33;;
11854;SDS011;5987;53.140;8.904;2023-03-01T03:59:45;13.90;;;10.03;;
11854;SDS011;5987;53.140;8.904;2023-03-01T04:02:50;21.10;;;10.37;;
11854;SDS011;5987;53.140;8.904;2023-03-01T04:05:58;12.73;;;9.23;;
11854;SDS011;5987;53.140;8.904;2023-03-01T04:09:02;15.90;;;10.10;;
11854;SDS011;5987;53.140;8.904;2023-03-01T04:12:06;16.67;;;9.50;;
11854;SDS011;5987;53.140;8.904;2023-03-01T04:15:10;14.77;;;9.57;;
11854;SDS011;5987;53.140;8.904;2023-03-01T04:18:19;13.90;;;9.23;;
11854;SDS011;5987;53.140;8.904;2023-03-01T04:21:25;12.73;;;9.10;;
11854;SDS011;5987;53.140;8.904;2023-03-01T04:24:29;14.97;;;9.53;;
11854;SDS011;5987;53.140;8.904;2023-03-01T04:27:33;13.73;;;9.93;;
11854;SDS011;5987;53.140;8.904;2023-03-01T04:30:37;13.37;;;9.17;;
11854;SDS011;5987;53.140;8.904;2023-03-01T04:33:44;13.07;;;9.37;;
11854;SDS011;5987;53.140;8.904;2023-03-01T04:36:50;14.37;;;9.13;;
11854;SDS011;5987;53.140;8.904;2023-03-01T04:39:54;13.23;;;9.33;;
11854;SDS011;5987;53.140;8.904;2023-03-01T04:42:57;10.30;;;8.63;;
11854;SDS011;5987;53.140;8.904;2023-03-01T04:46:01;13.63;;;9.57;;
11854;SDS011;5987;53.140;8.904;2023-03-01T04:49:11;12.60;;;9.00;;
11854;SDS011;5987;53.140;8.904;2023-03-01T04:52:14;13.20;;;9.13;;
11854;SDS011;5987;53.140;8.904;2023-03-01T04:55:18;15.03;;;9.37;;
11854;SDS011;5987;53.140;8.904;2023-03-01T04:58:22;14.20;;;9.30;;
11854;SDS011;5987;53.140;8.904;2023-03-01T05:01:26;14.60;;;8.83;;
11854;SDS011;5987;53.140;8.904;2023-03-01T05:04:31;14.27;;;9.20;;
11854;SDS011;5987;53.140;8.904;2023-03-01T05:07:35;12.70;;;8.87;;
11854;SDS011;5987;53.140;8.904;2023-03-01T05:10:39;10.47;;;8.47;;
11854;SDS011;5987;53.140;8.904;2023-03-01T05:13:43;14.20;;;9.37;;
11854;SDS011;5987;53.140;8.904;2023-03-01T05:16:47;13.63;;;9.30;;
11854;SDS011;5987;53.140;8.904;2023-03-01T05:19:52;11.97;;;9.20;;
11854;SDS011;5987;53.140;8.904;2023-03-01T05:22:57;12.53;;;8.70;;
11854;SDS011;5987;53.140;8.904;2023-03-01T05:26:07;12.27;;;8.43;;
11854;SDS011;5987;53.140;8.904;2023-03-01T05:29:28;10.93;;;8.47;;
11854;SDS011;5987;53.140;8.904;2023-03-01T05:32:36;12.63;;;8.13;;
11854;SDS011;5987;53.140;8.904;2023-03-01T05:35:41;9.53;;;7.57;;
11854;SDS011;5987;53.140;8.904;2023-03-01T05:38:46;18.67;;;8.93;;
11854;SDS011;5987;53.140;8.904;2023-03-01T05:41:51;12.60;;;8.50;;
11854;SDS011;5987;53.140;8.904;2023-03-01T05:44:56;11.53;;;8.67;;
11854;SDS011;5987;53.140;8.904;2023-03-01T05:48:00;12.53;;;8.73;;
11854;SDS011;5987;53.140;8.904;2023-03-01T05:51:05;13.73;;;8.40;;
11854;SDS011;5987;53.140;8.904;2023-03-01T05:54:09;14.07;;;9.83;;
11854;SDS011;5987;53.140;8.904;2023-03-01T05:57:13;13.97;;;9.80;;
11854;SDS011;5987;53.140;8.904;2023-03-01T06:00:18;13.67;;;9.37;;
11854;SDS011;5987;53.140;8.904;2023-03-01T06:03:24;15.33;;;10.90;;
11854;SDS011;5987;53.140;8.904;2023-03-01T06:06:29;15.03;;;9.73;;
11854;SDS011;5987;53.140;8.904;2023-03-01T06:09:38;13.27;;;9.37;;
11854;SDS011;5987;53.140;8.904;2023-03-01T06:12:42;14.87;;;10.27;;
11854;SDS011;5987;53.140;8.904;2023-03-01T06:15:46;12.87;;;8.90;;
11854;SDS011;5987;53.140;8.904;2023-03-01T06:18:50;16.30;;;9.37;;
11854;SDS011;5987;53.140;8.904;2023-03-01T06:21:55;14.37;;;10.47;;
11854;SDS011;5987;53.140;8.904;2023-03-01T06:25:01;13.10;;;9.23;;
11854;SDS011;5987;53.140;8.904;2023-03-01T06:28:05;15.90;;;9.37;;
11854;SDS011;5987;53.140;8.904;2023-03-01T06:31:09;16.30;;;9.50;;
11854;SDS011;5987;53.140;8.904;2023-03-01T06:34:12;15.37;;;9.77;;
11854;SDS011;5987;53.140;8.904;2023-03-01T06:37:18;14.77;;;9.60;;
11854;SDS011;5987;53.140;8.904;2023-03-01T06:40:22;15.03;;;9.73;;
11854;SDS011;5987;53.140;8.904;2023-03-01T06:43:25;12.10;;;9.30;;
11854;SDS011;5987;53.140;8.904;2023-03-01T06:46:29;12.90;;;8.97;;
11854;SDS011;5987;53.140;8.904;2023-03-01T06:49:33;14.93;;;10.03;;
11854;SDS011;5987;53.140;8.904;2023-03-01T06:52:38;16.30;;;10.23;;
11854;SDS011;5987;53.140;8.904;2023-03-01T06:55:42;14.37;;;10.17;;
11854;SDS011;5987;53.140;8.904;2023-03-01T06:58:46;15.20;;;8.80;;
11854;SDS011;5987;53.140;8.904;2023-03-01T07:01:49;15.30;;;9.03;;
11854;SDS011;5987;53.140;8.904;2023-03-01T07:04:53;14.13;;;8.33;;
11854;SDS011;5987;53.140;8.904;2023-03-01T07:07:58;10.97;;;8.50;;
11854;SDS011;5987;53.140;8.904;2023-03-01T07:11:02;10.30;;;7.80;;
11854;SDS011;5987;53.140;8.904;2023-03-01T07:14:07;10.57;;;7.67;;
11854;SDS011;5987;53.140;8.904;2023-03-01T07:17:10;13.03;;;8.50;;
11854;SDS011;5987;53.140;8.904;2023-03-01T07:20:14;14.13;;;8.90;;
11854;SDS011;5987;53.140;8.904;2023-03-01T07:23:20;13.43;;;8.47;;
11854;SDS011;5987;53.140;8.904;2023-03-01T07:26:23;10.57;;;7.57;;
11854;SDS011;5987;53.140;8.904;2023-03-01T07:29:27;10.13;;;7.43;;
11854;SDS011;5987;53.140;8.904;2023-03-01T07:32:31;11.40;;;8.00;;
11854;SDS011;5987;53.140;8.904;2023-03-01T07:35:35;12.67;;;8.73;;
11854;SDS011;5987;53.140;8.904;2023-03-01T07:38:40;12.97;;;8.03;;
11854;SDS011;5987;53.140;8.904;2023-03-01T07:41:44;18.67;;;9.27;;
11854;SDS011;5987;53.140;8.904;2023-03-01T07:44:48;17.10;;;9.70;;
11854;SDS011;5987;53.140;8.904;2023-03-01T07:47:52;16.47;;;9.73;;
11854;SDS011;5987;53.140;8.904;2023-03-01T07:50:57;13.90;;;9.70;;
11854;SDS011;5987;53.140;8.904;2023-03-01T07:54:03;13.67;;;9.97;;
11854;SDS011;5987;53.140;8.904;2023-03-01T07:57:07;16.07;;;10.50;;
11854;SDS011;5987;53.140;8.904;2023-03-01T08:00:11;13.47;;;10.10;;
11854;SDS011;5987;53.140;8.904;2023-03-01T08:03:16;16.47;;;10.03;;
11854;SDS011;5987;53.140;8.904;2023-03-01T08:06:20;14.03;;;9.37;;
11854;SDS011;5987;53.140;8.904;2023-03-01T08:09:25;14.23;;;9.67;;
11854;SDS011;5987;53.140;8.904;2023-03-01T08:12:29;13.50;;;9.60;;
11854;SDS011;5987;53.140;8.904;2023-03-01T08:15:44;19.57;;;10.63;;
11854;SDS011;5987;53.140;8.904;2023-03-01T08:18:47;11.93;;;9.33;;
11854;SDS011;5987;53.140;8.904;2023-03-01T08:21:51;17.23;;;10.27;;
11854;SDS011;5987;53.140;8.904;2023-03-01T08:24:57;16.40;;;11.50;;
11854;SDS011;5987;53.140;8.904;2023-03-01T08:28:00;18.63;;;11.53;;
11854;SDS011;5987;53.140;8.904;2023-03-01T08:31:12;16.37;;;11.03;;
11854;SDS011;5987;53.140;8.904;2023-03-01T08:34:18;13.40;;;10.03;;
11854;SDS011;5987;53.140;8.904;2023-03-01T08:37:22;14.37;;;9.67;;
11854;SDS011;5987;53.140;8.904;2023-03-01T08:40:27;13.37;;;9.80;;
11854;SDS011;5987;53.140;8.904;2023-03-01T08:43:31;16.43;;;10.70;;
11854;SDS011;5987;53.140;8.904;2023-03-01T08:46:36;12.53;;;9.33;;
11854;SDS011;5987;53.140;8.904;2023-03-01T08:49:42;14.43;;;9.27;;
11854;SDS011;5987;53.140;8.904;2023-03-01T08:52:46;13.30;;;9.77;;
11854;SDS011;5987;53.140;8.904;2023-03-01T08:55:52;15.70;;;9.53;;
11854;SDS011;5987;53.140;8.904;2023-03-01T08:58:56;14.20;;;10.07;;
11854;SDS011;5987;53.140;8.904;2023-03-01T09:02:00;14.57;;;10.03;;
11854;SDS011;5987;53.140;8.904;2023-03-01T09:05:04;14.70;;;10.67;;
11854;SDS011;5987;53.140;8.904;2023-03-01T09:08:09;16.27;;;10.83;;
11854;SDS011;5987;53.140;8.904;2023-03-01T09:11:15;16.53;;;9.87;;
11854;SDS011;5987;53.140;8.904;2023-03-01T09:14:21;14.67;;;9.80;;
11854;SDS011;5987;53.140;8.904;2023-03-01T09:17:25;20.00;;;9.93;;
11854;SDS011;5987;53.140;8.904;2023-03-01T09:20:30;13.10;;;9.73;;
11854;SDS011;5987;53.140;8.904;2023-03-01T09:23:35;15.33;;;9.17;;
11854;SDS011;5987;53.140;8.904;2023-03-01T09:26:42;9.73;;;7.30;;
11854;SDS011;5987;53.140;8.904;2023-03-01T09:29:50;9.57;;;7.57;;
11854;SDS011;5987;53.140;8.904;2023-03-01T09:32:55;10.80;;;7.53;;
11854;SDS011;5987;53.140;8.904;2023-03-01T09:36:00;10.80;;;7.90;;
11854;SDS011;5987;53.140;8.904;2023-03-01T09:39:06;10.33;;;7.77;;
11854;SDS011;5987;53.140;8.904;2023-03-01T09:42:11;9.80;;;7.57;;
11854;SDS011;5987;53.140;8.904;2023-03-01T09:45:23;9.17;;;5.97;;
11854;SDS011;5987;53.140;8.904;2023-03-01T09:48:33;10.57;;;6.27;;
11854;SDS011;5987;53.140;8.904;2023-03-01T09:51:48;6.97;;;5.30;;
11854;SDS011;5987;53.140;8.904;2023-03-01T09:55:05;8.93;;;5.33;;
11854;SDS011;5987;53.140;8.904;2023-03-01T09:58:34;5.80;;;4.90;;
11854;SDS011;5987;53.140;8.904;2023-03-01T10:01:51;11.50;;;5.13;;
11854;SDS011;5987;53.140;8.904;2023-03-01T10:05:05;6.33;;;4.77;;
11854;SDS011;5987;53.140;8.904;2023-03-01T10:08:38;7.47;;;5.17;;
11854;SDS011;5987;53.140;8.904;2023-03-01T10:11:50;8.63;;;5.67;;
11854;SDS011;5987;53.140;8.904;2023-03-01T10:15:00;7.53;;;5.07;;
11854;SDS011;5987;53.140;8.904;2023-03-01T10:18:12;10.77;;;6.67;;
11854;SDS011;5987;53.140;8.904;2023-03-01T10:21:22;9.40;;;6.20;;
11854;SDS011;5987;53.140;8.904;2023-03-01T10:24:34;10.30;;;7.37;;
11854;SDS011;5987;53.140;8.904;2023-03-01T10:27:41;9.83;;;6.97;;
11854;SDS011;5987;53.140;8.904;2023-03-01T10:30:55;11.30;;;7.57;;
11854;SDS011;5987;53.140;8.904;2023-03-01T10:34:02;11.43;;;7.87;;
11854;SDS011;5987;53.140;8.904;2023-03-01T10:37:11;11.03;;;7.57;;
11854;SDS011;5987;53.140;8.904;2023-03-01T10:40:19;13.10;;;7.83;;
11854;SDS011;5987;53.140;8.904;2023-03-01T10:43:23;10.27;;;8.23;;
11854;SDS011;5987;53.140;8.904;2023-03-01T10:46:35;12.73;;;8.80;;
11854;SDS011;5987;53.140;8.904;2023-03-01T10:49:45;9.87;;;7.73;;
11854;SDS011;5987;53.140;8.904;2023-03-01T10:53:40;10.70;;;7.97;;
11854;SDS011;5987;53.140;8.904;2023-03-01T10:56:51;11.90;;;8.13;;
11854;SDS011;5987;53.140;8.904;2023-03-01T11:00:02;13.00;;;8.37;;
11854;SDS011;5987;53.140;8.904;2023-03-01T11:03:26;8.63;;;7.17;;
11854;SDS011;5987;53.140;8.904;2023-03-01T11:06:32;9.17;;;7.83;;
11854;SDS011;5987;53.140;8.904;2023-03-01T11:09:38;12.23;;;8.73;;
11854;SDS011;5987;53.140;8.904;2023-03-01T11:12:41;10.67;;;8.53;;
11854;SDS011;5987;53.140;8.904;2023-03-01T11:15:57;12.87;;;8.93;;
11854;SDS011;5987;53.140;8.904;2023-03-01T11:22:24;13.17;;;9.83;;
11854;SDS011;5987;53.140;8.904;2023-03-01T11:25:31;14.27;;;9.63;;
11854;SDS011;5987;53.140;8.904;2023-03-01T11:28:40;13.53;;;9.70;;
11854;SDS011;5987;53.140;8.904;2023-03-01T11:31:47;15.13;;;9.60;;
11854;SDS011;5987;53.140;8.904;2023-03-01T11:35:02;12.57;;;9.73;;
11854;SDS011;5987;53.140;8.904;2023-03-01T11:38:19;13.87;;;9.80;;
11854;SDS011;5987;53.140;8.904;2023-03-01T11:41:28;13.63;;;10.80;;
11854;SDS011;5987;53.140;8.904;2023-03-01T11:44:36;13.20;;;9.67;;
11854;SDS011;5987;53.140;8.904;2023-03-01T11:48:06;13.90;;;9.83;;
11854;SDS011;5987;53.140;8.904;2023-03-01T11:51:53;11.87;;;9.23;;
11854;SDS011;5987;53.140;8.904;2023-03-01T11:55:16;13.13;;;9.07;;
11854;SDS011;5987;53.140;8.904;2023-03-01T11:58:43;12.70;;;9.07;;
11854;SDS011;5987;53.140;8.904;2023-03-01T12:02:16;11.43;;;8.67;;
11854;SDS011;5987;53.140;8.904;2023-03-01T12:09:51;16.37;;;8.47;;
11854;SDS011;5987;53.140;8.904;2023-03-01T12:13:22;11.97;;;9.20;;
11854;SDS011;5987;53.140;8.904;2023-03-01T12:17:06;13.00;;;8.73;;
11854;SDS011;5987;53.140;8.904;2023-03-01T12:20:30;11.10;;;8.63;;
11854;SDS011;5987;53.140;8.904;2023-03-01T12:24:00;12.13;;;9.77;;
11854;SDS011;5987;53.140;8.904;2023-03-01T12:27:54;14.73;;;9.43;;
11854;SDS011;5987;53.140;8.904;2023-03-01T12:35:23;13.30;;;8.87;;
11854;SDS011;5987;53.140;8.904;2023-03-01T12:39:09;13.87;;;9.77;;
11854;SDS011;5987;53.140;8.904;2023-03-01T12:42:35;15.07;;;9.70;;
11854;SDS011;5987;53.140;8.904;2023-03-01T12:46:04;11.93;;;9.23;;
11854;SDS011;5987;53.140;8.904;2023-03-01T12:49:37;12.60;;;9.17;;
11854;SDS011;5987;53.140;8.904;2023-03-01T12:52:49;13.80;;;8.97;;
11854;SDS011;5987;53.140;8.904;2023-03-01T12:55:56;13.00;;;10.37;;
11854;SDS011;5987;53.140;8.904;2023-03-01T12:59:07;12.97;;;9.27;;
11854;SDS011;5987;53.140;8.904;2023-03-01T13:02:23;13.13;;;9.73;;
11854;SDS011;5987;53.140;8.904;2023-03-01T13:05:36;11.77;;;10.27;;
11854;SDS011;5987;53.140;8.904;2023-03-01T13:08:56;12.77;;;10.00;;
11854;SDS011;5987;53.140;8.904;2023-03-01T13:19:56;13.67;;;10.90;;
11854;SDS011;5987;53.140;8.904;2023-03-01T13:23:06;15.40;;;10.97;;
11854;SDS011;5987;53.140;8.904;2023-03-01T13:26:16;13.47;;;10.50;;
11854;SDS011;5987;53.140;8.904;2023-03-01T13:29:30;13.40;;;10.63;;
11854;SDS011;5987;53.140;8.904;2023-03-01T13:32:49;13.10;;;10.27;;
11854;SDS011;5987;53.140;8.904;2023-03-01T13:35:55;13.53;;;10.73;;
11854;SDS011;5987;53.140;8.904;2023-03-01T13:39:02;13.63;;;10.90;;
11854;SDS011;5987;53.140;8.904;2023-03-01T13:42:32;16.77;;;10.80;;
11854;SDS011;5987;53.140;8.904;2023-03-01T13:46:00;14.33;;;10.60;;
11854;SDS011;5987;53.140;8.904;2023-03-01T13:49:14;14.10;;;10.60;;
11854;SDS011;5987;53.140;8.904;2023-03-01T13:52:31;16.77;;;10.53;;
11854;SDS011;5987;53.140;8.904;2023-03-01T13:55:42;12.33;;;9.63;;
11854;SDS011;5987;53.140;8.904;2023-03-01T13:58:50;12.67;;;9.87;;
11854;SDS011;5987;53.140;8.904;2023-03-01T14:01:58;13.60;;;10.40;;
11854;SDS011;5987;53.140;8.904;2023-03-01T14:05:03;13.63;;;10.47;;
11854;SDS011;5987;53.140;8.904;2023-03-01T14:08:22;11.87;;;9.00;;
11854;SDS011;5987;53.140;8.904;2023-03-01T14:15:18;14.47;;;9.90;;
11854;SDS011;5987;53.140;8.904;2023-03-01T14:18:32;12.93;;;9.40;;
11854;SDS011;5987;53.140;8.904;2023-03-01T14:21:48;11.47;;;9.27;;
11854;SDS011;5987;53.140;8.904;2023-03-01T14:25:24;13.77;;;10.67;;
11854;SDS011;5987;53.140;8.904;2023-03-01T14:28:31;12.30;;;9.87;;
11854;SDS011;5987;53.140;8.904;2023-03-01T14:31:39;15.17;;;10.93;;
11854;SDS011;5987;53.140;8.904;2023-03-01T14:34:54;14.23;;;9.90;;
11854;SDS011;5987;53.140;8.904;2023-03-01T14:38:01;13.33;;;10.07;;
11854;SDS011;5987;53.140;8.904;2023-03-01T14:41:07;13.67;;;10.33;;
11854;SDS011;5987;53.140;8.904;2023-03-01T14:44:17;14.97;;;10.37;;
11854;SDS011;5987;53.140;8.904;2023-03-01T14:47:26;18.50;;;11.27;;
11854;SDS011;5987;53.140;8.904;2023-03-01T14:50:34;18.73;;;11.93;;
11854;SDS011;5987;53.140;8.904;2023-03-01T14:53:43;19.40;;;11.37;;
11854;SDS011;5987;53.140;8.904;2023-03-01T14:56:54;19.03;;;12.07;;
11854;SDS011;5987;53.140;8.904;2023-03-01T15:00:03;17.93;;;11.27;;
11854;SDS011;5987;53.140;8.904;2023-03-01T15:03:11;15.37;;;10.63;;
11854;SDS011;5987;53.140;8.904;2023-03-01T15:06:22;18.93;;;11.23;;
11854;SDS011;5987;53.140;8.904;2023-03-01T15:09:26;20.70;;;12.97;;
11854;SDS011;5987;53.140;8.904;2023-03-01T15:12:37;18.17;;;11.13;;
11854;SDS011;5987;53.140;8.904;2023-03-01T15:15:43;16.07;;;11.20;;
11854;SDS011;5987;53.140;8.904;2023-03-01T15:18:52;17.70;;;12.17;;
11854;SDS011;5987;53.140;8.904;2023-03-01T15:21:59;16.03;;;10.97;;
11854;SDS011;5987;53.140;8.904;2023-03-01T15:25:14;18.90;;;11.67;;
11854;SDS011;5987;53.140;8.904;2023-03-01T15:28:22;14.30;;;10.50;;
11854;SDS011;5987;53.140;8.904;2023-03-01T15:31:29;17.03;;;11.80;;
11854;SDS011;5987;53.140;8.904;2023-03-01T15:34:40;15.37;;;10.80;;
11854;SDS011;5987;53.140;8.904;2023-03-01T15:37:44;17.07;;;11.37;;
11854;SDS011;5987;53.140;8.904;2023-03-01T15:40:51;17.97;;;11.70;;
11854;SDS011;5987;53.140;8.904;2023-03-01T15:43:57;18.37;;;12.37;;
11854;SDS011;5987;53.140;8.904;2023-03-01T15:47:03;17.13;;;11.23;;
11854;SDS011;5987;53.140;8.904;2023-03-01T15:50:28;17.87;;;12.23;;
11854;SDS011;5987;53.140;8.904;2023-03-01T15:53:35;15.03;;;10.33;;
11854;SDS011;5987;53.140;8.904;2023-03-01T15:56:54;15.53;;;10.10;;
11854;SDS011;5987;53.140;8.904;2023-03-01T15:59:59;15.37;;;10.33;;
11854;SDS011;5987;53.140;8.904;2023-03-01T16:03:04;15.37;;;10.47;;
11854;SDS011;5987;53.140;8.904;2023-03-01T16:06:10;19.23;;;12.47;;
11854;SDS011;5987;53.140;8.904;2023-03-01T16:09:15;18.63;;;12.30;;
11854;SDS011;5987;53.140;8.904;2023-03-01T16:12:19;17.93;;;11.13;;
11854;SDS011;5987;53.140;8.904;2023-03-01T16:15:25;16.77;;;11.13;;
11854;SDS011;5987;53.140;8.904;2023-03-01T16:18:33;22.27;;;11.10;;
11854;SDS011;5987;53.140;8.904;2023-03-01T16:21:37;18.97;;;11.87;;
11854;SDS011;5987;53.140;8.904;2023-03-01T16:24:40;19.93;;;12.40;;
11854;SDS011;5987;53.140;8.904;2023-03-01T16:27:45;18.93;;;10.83;;
11854;SDS011;5987;53.140;8.904;2023-03-01T16:30:52;17.67;;;11.50;;
11854;SDS011;5987;53.140;8.904;2023-03-01T16:33:56;18.63;;;11.40;;
11854;SDS011;5987;53.140;8.904;2023-03-01T16:37:01;18.53;;;10.40;;
11854;SDS011;5987;53.140;8.904;2023-03-01T16:40:06;17.60;;;11.83;;
11854;SDS011;5987;53.140;8.904;2023-03-01T16:43:20;17.93;;;11.70;;
11854;SDS011;5987;53.140;8.904;2023-03-01T16:46:26;18.47;;;12.00;;
11854;SDS011;5987;53.140;8.904;2023-03-01T16:49:31;19.17;;;11.57;;
11854;SDS011;5987;53.140;8.904;2023-03-01T16:52:34;17.67;;;10.50;;
11854;SDS011;5987;53.140;8.904;2023-03-01T16:55:38;17.07;;;11.03;;
11854;SDS011;5987;53.140;8.904;2023-03-01T16:58:46;17.30;;;10.90;;
11854;SDS011;5987;53.140;8.904;2023-03-01T17:01:52;19.10;;;12.70;;
11854;SDS011;5987;53.140;8.904;2023-03-01T17:04:55;17.53;;;11.03;;
11854;SDS011;5987;53.140;8.904;2023-03-01T17:07:59;17.30;;;11.50;;
11854;SDS011;5987;53.140;8.904;2023-03-01T17:11:04;22.77;;;12.67;;
11854;SDS011;5987;53.140;8.904;2023-03-01T17:14:10;21.33;;;12.20;;
11854;SDS011;5987;53.140;8.904;2023-03-01T17:17:15;18.23;;;11.50;;
11854;SDS011;5987;53.140;8.904;2023-03-01T17:20:18;18.80;;;12.20;;
11854;SDS011;5987;53.140;8.904;2023-03-01T17:23:22;18.13;;;12.13;;
11854;SDS011;5987;53.140;8.904;2023-03-01T17:26:26;20.03;;;11.53;;
11854;SDS011;5987;53.140;8.904;2023-03-01T17:29:31;20.97;;;12.53;;
11854;SDS011;5987;53.140;8.904;2023-03-01T17:32:36;20.33;;;13.27;;
11854;SDS011;5987;53.140;8.904;2023-03-01T17:35:40;20.20;;;12.97;;
11854;SDS011;5987;53.140;8.904;2023-03-01T17:38:47;24.17;;;13.20;;
11854;SDS011;5987;53.140;8.904;2023-03-01T17:41:52;23.90;;;15.10;;
11854;SDS011;5987;53.140;8.904;2023-03-01T17:44:57;25.37;;;14.43;;
11854;SDS011;5987;53.140;8.904;2023-03-01T17:48:02;21.20;;;14.07;;
11854;SDS011;5987;53.140;8.904;2023-03-01T17:51:08;22.33;;;14.97;;
11854;SDS011;5987;53.140;8.904;2023-03-01T17:54:13;29.13;;;15.40;;
11854;SDS011;5987;53.140;8.904;2023-03-01T17:57:17;27.13;;;15.90;;
11854;SDS011;5987;53.140;8.904;2023-03-01T18:00:21;30.27;;;16.77;;
11854;SDS011;5987;53.140;8.904;2023-03-01T18:03:27;27.37;;;15.37;;
11854;SDS011;5987;53.140;8.904;2023-03-01T18:06:31;26.63;;;16.27;;
11854;SDS011;5987;53.140;8.904;2023-03-01T18:09:35;24.97;;;15.57;;
11854;SDS011;5987;53.140;8.904;2023-03-01T18:12:38;27.23;;;15.53;;
11854;SDS011;5987;53.140;8.904;2023-03-01T18:15:42;29.37;;;16.10;;
11854;SDS011;5987;53.140;8.904;2023-03-01T18:18:51;25.40;;;15.63;;
11854;SDS011;5987;53.140;8.904;2023-03-01T18:21:56;25.60;;;15.40;;
11854;SDS011;5987;53.140;8.904;2023-03-01T18:25:00;29.27;;;14.87;;
11854;SDS011;5987;53.140;8.904;2023-03-01T18:28:05;27.57;;;14.87;;
11854;SDS011;5987;53.140;8.904;2023-03-01T18:31:09;27.70;;;16.07;;
11854;SDS011;5987;53.140;8.904;2023-03-01T18:34:14;36.27;;;18.33;;
11854;SDS011;5987;53.140;8.904;2023-03-01T18:37:18;35.97;;;17.77;;
11854;SDS011;5987;53.140;8.904;2023-03-01T18:40:22;31.93;;;16.33;;
11854;SDS011;5987;53.140;8.904;2023-03-01T18:43:25;34.83;;;16.60;;
11854;SDS011;5987;53.140;8.904;2023-03-01T18:46:30;36.63;;;17.33;;
11854;SDS011;5987;53.140;8.904;2023-03-01T18:49:39;37.00;;;18.10;;
11854;SDS011;5987;53.140;8.904;2023-03-01T18:52:44;32.07;;;18.83;;
11854;SDS011;5987;53.140;8.904;2023-03-01T18:55:48;39.97;;;18.07;;
11854;SDS011;5987;53.140;8.904;2023-03-01T18:58:51;35.47;;;17.20;;
11854;SDS011;5987;53.140;8.904;2023-03-01T19:01:56;37.80;;;16.43;;
11854;SDS011;5987;53.140;8.904;2023-03-01T19:05:02;39.47;;;18.33;;
11854;SDS011;5987;53.140;8.904;2023-03-01T19:08:07;36.90;;;17.37;;